sensor_id;sensor_type;location;lat;lon;timestamp;P1;P2;P0
60816;PMS5003;51921;51.518;-3.188;2023-03-11T00:01:16;14;13;
60816;PMS5003;51921;51.518;-3.188;2023-03-11T00:03:41;13;13;
60816;PMS5003;51921;51.518;-3.188;2023-03-11T00:06:07;13;12;
60816;PMS5003;51921;51.518;-3.188;2023-03-11T00:08:33;12;12;
60816;PMS5003;51921;51.518;-3.188;2023-03-11T00:10:59;13;13;
60816;PMS5003;51921;51.518;-3.188;2023-03-11T00:13:25;15;14;
60816;PMS5003;51921;51.518;-3.188;2023-03-11T00:15:51;12;12;
60816;PMS5003;51921;51.518;-3.188;2023-03-11T00:18:16;15;14;
60816;PMS5003;51921;51.518;-3.188;2023-03-11T00:20:42;14;14;
60816;PMS5003;51921;51.518;-3.188;2023-03-11T00:23:08;12;10;
60816;PMS5003;51921;51.518;-3.188;2023-03-11T00:25:34;14;13;
60816;PMS5003;51921;51.518;-3.188;2023-03-11T00:27:59;15;15;
60816;PMS5003;51921;51.518;-3.188;2023-03-11T00:30:25;13;13;
60816;PMS5003;51921;51.518;-3.188;2023-03-11T00:32:52;17;16;
60816;PMS5003;51921;51.518;-3.188;2023-03-11T00:35:17;14;13;
60816;PMS5003;51921;51.518;-3.188;2023-03-11T00:37:42;12;12;
60816;PMS5003;51921;51.518;-3.188;2023-03-11T00:40:09;14;14;
60816;PMS5003;51921;51.518;-3.188;2023-03-11T00:42:33;15;14;
60816;PMS5003;51921;51.518;-3.188;2023-03-11T00:44:58;16;15;
60816;PMS5003;51921;51.518;-3.188;2023-03-11T00:47:24;13;13;
60816;PMS5003;51921;51.518;-3.188;2023-03-11T00:49:50;16;15;
60816;PMS5003;51921;51.518;-3.188;2023-03-11T00:52:16;17;16;
60816;PMS5003;51921;51.518;-3.188;2023-03-11T00:54:41;14;13;
60816;PMS5003;51921;51.518;-3.188;2023-03-11T00:57:07;14;14;
60816;PMS5003;51921;51.518;-3.188;2023-03-11T00:59:33;13;12;
60816;PMS5003;51921;51.518;-3.188;2023-03-11T01:01:58;18;16;
60816;PMS5003;51921;51.518;-3.188;2023-03-11T01:04:24;15;15;
60816;PMS5003;51921;51.518;-3.188;2023-03-11T01:06:49;15;15;
60816;PMS5003;51921;51.518;-3.188;2023-03-11T01:09:15;18;17;
60816;PMS5003;51921;51.518;-3.188;2023-03-11T01:11:41;14;13;
60816;PMS5003;51921;51.518;-3.188;2023-03-11T01:14:06;15;14;
60816;PMS5003;51921;51.518;-3.188;2023-03-11T01:16:32;17;16;
60816;PMS5003;51921;51.518;-3.188;2023-03-11T01:18:58;19;16;
60816;PMS5003;51921;51.518;-3.188;2023-03-11T01:21:24;16;15;
60816;PMS5003;51921;51.518;-3.188;2023-03-11T01:23:49;17;14;
60816;PMS5003;51921;51.518;-3.188;2023-03-11T01:26:15;17;16;
60816;PMS5003;51921;51.518;-3.188;2023-03-11T01:28:41;20;18;
60816;PMS5003;51921;51.518;-3.188;2023-03-11T01:31:07;15;14;
60816;PMS5003;51921;51.518;-3.188;2023-03-11T01:33:31;16;16;
60816;PMS5003;51921;51.518;-3.188;2023-03-11T01:35:57;17;16;
60816;PMS5003;51921;51.518;-3.188;2023-03-11T01:38:23;17;15;
60816;PMS5003;51921;51.518;-3.188;2023-03-11T01:40:49;17;17;
60816;PMS5003;51921;51.518;-3.188;2023-03-11T01:45:41;;15;
60816;PMS5003;51921;51.518;-3.188;2023-03-11T01:48:06;17;17;
60816;PMS5003;51921;51.518;-3.188;2023-03-11T01:50:33;19;17;
60816;PMS5003;51921;51.518;-3.188;2023-03-11T01:52:57;17;16;
60816;PMS5003;51921;51.518;-3.188;2023-03-11T01:55:23;20;19;
60816;PMS5003;51921;51.518;-3.188;2023-03-11T01:57:49;15;15;
60816;PMS5003;51921;51.518;-3.188;2023-03-11T02:00:14;15;15;
60816;PMS5003;51921;51.518;-3.188;2023-03-11T02:02:41;16;16;
60816;PMS5003;51921;51.518;-3.188;2023-03-11T02:05:06;15;14;
60816;PMS5003;51921;51.518;-3.188;2023-03-11T02:07:31;16;15;
60816;PMS5003;51921;51.518;-3.188;2023-03-11T02:09:57;18;17;
60816;PMS5003;51921;51.518;-3.188;2023-03-11T02:12:22;17;17;
60816;PMS5003;51921;51.518;-3.188;2023-03-11T02:14:49;15;15;
60816;PMS5003;51921;51.518;-3.188;2023-03-11T02:17:14;22;21;
60816;PMS5003;51921;51.518;-3.188;2023-03-11T02:19:44;19;19;
60816;PMS5003;51921;51.518;-3.188;2023-03-11T02:22:05;22;21;
60816;PMS5003;51921;51.518;-3.188;2023-03-11T02:24:34;22;21;
60816;PMS5003;51921;51.518;-3.188;2023-03-11T02:26:57;23;21;
60816;PMS5003;51921;51.518;-3.188;2023-03-11T02:29:23;19;18;
60816;PMS5003;51921;51.518;-3.188;2023-03-11T02:31:48;21;21;
60816;PMS5003;51921;51.518;-3.188;2023-03-11T02:34:15;22;21;
60816;PMS5003;51921;51.518;-3.188;2023-03-11T02:36:40;19;19;
60816;PMS5003;51921;51.518;-3.188;2023-03-11T02:39:05;22;19;
60816;PMS5003;51921;51.518;-3.188;2023-03-11T02:41:30;25;24;
60816;PMS5003;51921;51.518;-3.188;2023-03-11T02:43:55;23;22;
60816;PMS5003;51921;51.518;-3.188;2023-03-11T02:46:21;22;21;
60816;PMS5003;51921;51.518;-3.188;2023-03-11T02:48:46;23;23;
60816;PMS5003;51921;51.518;-3.188;2023-03-11T02:51:12;21;19;
60816;PMS5003;51921;51.518;-3.188;2023-03-11T02:53:39;25;24;
60816;PMS5003;51921;51.518;-3.188;2023-03-11T02:56:03;22;19;
60816;PMS5003;51921;51.518;-3.188;2023-03-11T02:58:29;27;26;
60816;PMS5003;51921;51.518;-3.188;2023-03-11T03:00:54;26;23;
60816;PMS5003;51921;51.518;-3.188;2023-03-11T03:03:19;21;20;
60816;PMS5003;51921;51.518;-3.188;2023-03-11T03:05:45;26;25;
60816;PMS5003;51921;51.518;-3.188;2023-03-11T03:08:10;22;21;
60816;PMS5003;51921;51.518;-3.188;2023-03-11T03:10:36;26;25;
60816;PMS5003;51921;51.518;-3.188;2023-03-11T03:13:01;24;24;
60816;PMS5003;51921;51.518;-3.188;2023-03-11T03:15:27;26;24;
60816;PMS5003;51921;51.518;-3.188;2023-03-11T03:17:52;25;25;
60816;PMS5003;51921;51.518;-3.188;2023-03-11T03:20:18;23;23;
60816;PMS5003;51921;51.518;-3.188;2023-03-11T03:22:43;25;24;
60816;PMS5003;51921;51.518;-3.188;2023-03-11T03:25:09;30;29;
60816;PMS5003;51921;51.518;-3.188;2023-03-11T03:27:34;29;28;
60816;PMS5003;51921;51.518;-3.188;2023-03-11T03:30:00;24;21;
60816;PMS5003;51921;51.518;-3.188;2023-03-11T03:32:25;25;25;
60816;PMS5003;51921;51.518;-3.188;2023-03-11T03:34:51;26;25;
60816;PMS5003;51921;51.518;-3.188;2023-03-11T03:37:16;24;23;
60816;PMS5003;51921;51.518;-3.188;2023-03-11T03:39:41;24;24;
60816;PMS5003;51921;51.518;-3.188;2023-03-11T03:42:07;25;25;
60816;PMS5003;51921;51.518;-3.188;2023-03-11T03:44:32;27;26;
60816;PMS5003;51921;51.518;-3.188;2023-03-11T03:46:57;28;26;
60816;PMS5003;51921;51.518;-3.188;2023-03-11T03:49:22;30;30;
60816;PMS5003;51921;51.518;-3.188;2023-03-11T03:51:48;27;26;
60816;PMS5003;51921;51.518;-3.188;2023-03-11T03:54:14;33;29;
60816;PMS5003;51921;51.518;-3.188;2023-03-11T03:56:39;28;25;
60816;PMS5003;51921;51.518;-3.188;2023-03-11T03:59:04;28;25;
60816;PMS5003;51921;51.518;-3.188;2023-03-11T04:01:30;29;28;
60816;PMS5003;51921;51.518;-3.188;2023-03-11T04:03:55;28;27;
60816;PMS5003;51921;51.518;-3.188;2023-03-11T04:06:21;29;27;
60816;PMS5003;51921;51.518;-3.188;2023-03-11T04:08:46;29;25;
60816;PMS5003;51921;51.518;-3.188;2023-03-11T04:11:11;29;28;
60816;PMS5003;51921;51.518;-3.188;2023-03-11T04:13:36;33;29;
60816;PMS5003;51921;51.518;-3.188;2023-03-11T04:16:01;32;30;
60816;PMS5003;51921;51.518;-3.188;2023-03-11T04:18:26;35;34;
60816;PMS5003;51921;51.518;-3.188;2023-03-11T04:20:51;29;29;
60816;PMS5003;51921;51.518;-3.188;2023-03-11T04:23:17;27;25;
60816;PMS5003;51921;51.518;-3.188;2023-03-11T04:25:43;32;30;
60816;PMS5003;51921;51.518;-3.188;2023-03-11T04:28:08;32;30;
60816;PMS5003;51921;51.518;-3.188;2023-03-11T04:30:34;30;29;
60816;PMS5003;51921;51.518;-3.188;2023-03-11T04:32:59;32;32;
60816;PMS5003;51921;51.518;-3.188;2023-03-11T04:35:24;34;31;
60816;PMS5003;51921;51.518;-3.188;2023-03-11T04:37:50;30;28;
60816;PMS5003;51921;51.518;-3.188;2023-03-11T04:40:15;30;30;
60816;PMS5003;51921;51.518;-3.188;2023-03-11T04:42:41;30;29;
60816;PMS5003;51921;51.518;-3.188;2023-03-11T04:45:07;30;28;
60816;PMS5003;51921;51.518;-3.188;2023-03-11T04:47:31;35;30;
60816;PMS5003;51921;51.518;-3.188;2023-03-11T04:49:57;28;26;
60816;PMS5003;51921;51.518;-3.188;2023-03-11T04:52:22;31;29;
60816;PMS5003;51921;51.518;-3.188;2023-03-11T04:54:48;32;29;
60816;PMS5003;51921;51.518;-3.188;2023-03-11T04:57:13;31;29;
60816;PMS5003;51921;51.518;-3.188;2023-03-11T04:59:38;27;26;
60816;PMS5003;51921;51.518;-3.188;2023-03-11T05:02:04;33;30;
60816;PMS5003;51921;51.518;-3.188;2023-03-11T05:04:30;28;26;
60816;PMS5003;51921;51.518;-3.188;2023-03-11T05:06:55;34;30;
60816;PMS5003;51921;51.518;-3.188;2023-03-11T05:09:20;26;25;
60816;PMS5003;51921;51.518;-3.188;2023-03-11T05:11:46;29;27;
60816;PMS5003;51921;51.518;-3.188;2023-03-11T05:14:11;27;26;
60816;PMS5003;51921;51.518;-3.188;2023-03-11T05:16:37;28;26;
60816;PMS5003;51921;51.518;-3.188;2023-03-11T05:19:02;29;28;
60816;PMS5003;51921;51.518;-3.188;2023-03-11T05:21:27;27;25;
60816;PMS5003;51921;51.518;-3.188;2023-03-11T05:23:53;29;26;
60816;PMS5003;51921;51.518;-3.188;2023-03-11T05:26:19;26;25;
60816;PMS5003;51921;51.518;-3.188;2023-03-11T05:28:44;27;25;
60816;PMS5003;51921;51.518;-3.188;2023-03-11T05:31:10;24;23;
60816;PMS5003;51921;51.518;-3.188;2023-03-11T05:33:36;26;24;
60816;PMS5003;51921;51.518;-3.188;2023-03-11T05:36:03;27;26;
60816;PMS5003;51921;51.518;-3.188;2023-03-11T05:38:27;26;24;
60816;PMS5003;51921;51.518;-3.188;2023-03-11T05:40:53;24;23;
60816;PMS5003;51921;51.518;-3.188;2023-03-11T05:43:19;30;28;
60816;PMS5003;51921;51.518;-3.188;2023-03-11T05:45:44;25;25;
60816;PMS5003;51921;51.518;-3.188;2023-03-11T05:48:10;27;25;
60816;PMS5003;51921;51.518;-3.188;2023-03-11T05:50:36;30;27;
60816;PMS5003;51921;51.518;-3.188;2023-03-11T05:53:00;26;26;
60816;PMS5003;51921;51.518;-3.188;2023-03-11T05:55:26;28;25;
60816;PMS5003;51921;51.518;-3.188;2023-03-11T05:57:51;28;25;
60816;PMS5003;51921;51.518;-3.188;2023-03-11T06:00:17;24;24;
60816;PMS5003;51921;51.518;-3.188;2023-03-11T06:02:43;27;25;
60816;PMS5003;51921;51.518;-3.188;2023-03-11T06:05:09;25;23;
60816;PMS5003;51921;51.518;-3.188;2023-03-11T06:07:36;23;19;
60816;PMS5003;51921;51.518;-3.188;2023-03-11T06:10:00;23;23;
60816;PMS5003;51921;51.518;-3.188;2023-03-11T06:12:25;24;22;
60816;PMS5003;51921;51.518;-3.188;2023-03-11T06:14:52;24;24;
60816;PMS5003;51921;51.518;-3.188;2023-03-11T06:17:16;27;24;
60816;PMS5003;51921;51.518;-3.188;2023-03-11T06:19:41;24;23;
60816;PMS5003;51921;51.518;-3.188;2023-03-11T06:22:07;24;22;
60816;PMS5003;51921;51.518;-3.188;2023-03-11T06:24:33;24;23;
60816;PMS5003;51921;51.518;-3.188;2023-03-11T06:26:58;26;25;
60816;PMS5003;51921;51.518;-3.188;2023-03-11T06:29:24;25;22;
60816;PMS5003;51921;51.518;-3.188;2023-03-11T06:31:49;23;23;
60816;PMS5003;51921;51.518;-3.188;2023-03-11T06:34:15;21;19;
60816;PMS5003;51921;51.518;-3.188;2023-03-11T06:36:42;25;23;
60816;PMS5003;51921;51.518;-3.188;2023-03-11T06:39:06;23;22;
60816;PMS5003;51921;51.518;-3.188;2023-03-11T06:41:36;20;20;
60816;PMS5003;51921;51.518;-3.188;2023-03-11T06:43:58;23;22;
60816;PMS5003;51921;51.518;-3.188;2023-03-11T06:46:23;24;21;
60816;PMS5003;51921;51.518;-3.188;2023-03-11T06:48:50;21;21;
60816;PMS5003;51921;51.518;-3.188;2023-03-11T06:51:14;26;25;
60816;PMS5003;51921;51.518;-3.188;2023-03-11T06:53:39;24;21;
60816;PMS5003;51921;51.518;-3.188;2023-03-11T06:56:06;23;23;
60816;PMS5003;51921;51.518;-3.188;2023-03-11T06:58:31;21;19;
60816;PMS5003;51921;51.518;-3.188;2023-03-11T07:00:59;21;19;
60816;PMS5003;51921;51.518;-3.188;2023-03-11T07:03:23;27;24;
60816;PMS5003;51921;51.518;-3.188;2023-03-11T07:05:49;23;19;
60816;PMS5003;51921;51.518;-3.188;2023-03-11T07:08:13;22;21;
60816;PMS5003;51921;51.518;-3.188;2023-03-11T07:10:39;25;24;
60816;PMS5003;51921;51.518;-3.188;2023-03-11T07:13:04;22;22;
60816;PMS5003;51921;51.518;-3.188;2023-03-11T07:15:30;27;23;
60816;PMS5003;51921;51.518;-3.188;2023-03-11T07:17:56;22;22;
60816;PMS5003;51921;51.518;-3.188;2023-03-11T07:20:21;21;20;
60816;PMS5003;51921;51.518;-3.188;2023-03-11T07:22:47;18;18;
60816;PMS5003;51921;51.518;-3.188;2023-03-11T07:25:12;25;22;
60816;PMS5003;51921;51.518;-3.188;2023-03-11T07:27:38;21;18;
60816;PMS5003;51921;51.518;-3.188;2023-03-11T07:30:03;22;18;
60816;PMS5003;51921;51.518;-3.188;2023-03-11T07:32:30;22;21;
60816;PMS5003;51921;51.518;-3.188;2023-03-11T07:34:54;23;22;
60816;PMS5003;51921;51.518;-3.188;2023-03-11T07:37:20;21;19;
60816;PMS5003;51921;51.518;-3.188;2023-03-11T07:39:45;22;21;
60816;PMS5003;51921;51.518;-3.188;2023-03-11T07:42:11;19;17;
60816;PMS5003;51921;51.518;-3.188;2023-03-11T07:44:36;24;22;
60816;PMS5003;51921;51.518;-3.188;2023-03-11T07:47:02;19;19;
60816;PMS5003;51921;51.518;-3.188;2023-03-11T07:49:27;21;19;
60816;PMS5003;51921;51.518;-3.188;2023-03-11T07:51:53;18;18;
60816;PMS5003;51921;51.518;-3.188;2023-03-11T07:54:18;21;19;
60816;PMS5003;51921;51.518;-3.188;2023-03-11T07:56:46;22;21;
60816;PMS5003;51921;51.518;-3.188;2023-03-11T07:59:11;21;20;
60816;PMS5003;51921;51.518;-3.188;2023-03-11T08:01:35;20;19;
60816;PMS5003;51921;51.518;-3.188;2023-03-11T08:04:01;19;18;
60816;PMS5003;51921;51.518;-3.188;2023-03-11T08:06:27;19;19;
60816;PMS5003;51921;51.518;-3.188;2023-03-11T08:08:55;18;17;
60816;PMS5003;51921;51.518;-3.188;2023-03-11T08:11:18;22;19;
60816;PMS5003;51921;51.518;-3.188;2023-03-11T08:13:44;20;20;
60816;PMS5003;51921;51.518;-3.188;2023-03-11T08:16:10;20;18;
60816;PMS5003;51921;51.518;-3.188;2023-03-11T08:18:34;17;16;
60816;PMS5003;51921;51.518;-3.188;2023-03-11T08:21:03;26;23;
60816;PMS5003;51921;51.518;-3.188;2023-03-11T08:23:25;19;18;
60816;PMS5003;51921;51.518;-3.188;2023-03-11T08:25:53;21;19;
60816;PMS5003;51921;51.518;-3.188;2023-03-11T08:28:17;19;18;
60816;PMS5003;51921;51.518;-3.188;2023-03-11T08:30:42;19;19;
60816;PMS5003;51921;51.518;-3.188;2023-03-11T08:33:08;24;19;
60816;PMS5003;51921;51.518;-3.188;2023-03-11T08:35:33;21;21;
60816;PMS5003;51921;51.518;-3.188;2023-03-11T08:37:59;24;23;
60816;PMS5003;51921;51.518;-3.188;2023-03-11T08:40:25;20;19;
60816;PMS5003;51921;51.518;-3.188;2023-03-11T08:42:50;21;21;
60816;PMS5003;51921;51.518;-3.188;2023-03-11T08:45:16;23;20;
60816;PMS5003;51921;51.518;-3.188;2023-03-11T08:47:42;20;19;
60816;PMS5003;51921;51.518;-3.188;2023-03-11T08:50:10;21;20;
60816;PMS5003;51921;51.518;-3.188;2023-03-11T08:52:33;27;23;
60816;PMS5003;51921;51.518;-3.188;2023-03-11T08:54:59;19;19;
60816;PMS5003;51921;51.518;-3.188;2023-03-11T08:57:24;23;23;
60816;PMS5003;51921;51.518;-3.188;2023-03-11T08:59:49;19;18;
60816;PMS5003;51921;51.518;-3.188;2023-03-11T09:02:14;18;17;
60816;PMS5003;51921;51.518;-3.188;2023-03-11T09:04:40;25;21;
60816;PMS5003;51921;51.518;-3.188;2023-03-11T09:07:08;20;20;
60816;PMS5003;51921;51.518;-3.188;2023-03-11T09:09:31;20;19;
60816;PMS5003;51921;51.518;-3.188;2023-03-11T09:11:56;22;21;
60816;PMS5003;51921;51.518;-3.188;2023-03-11T09:14:22;19;19;
60816;PMS5003;51921;51.518;-3.188;2023-03-11T09:16:48;21;20;
60816;PMS5003;51921;51.518;-3.188;2023-03-11T09:19:13;21;19;
60816;PMS5003;51921;51.518;-3.188;2023-03-11T09:21:39;21;21;
60816;PMS5003;51921;51.518;-3.188;2023-03-11T09:24:05;23;20;
60816;PMS5003;51921;51.518;-3.188;2023-03-11T09:26:30;21;20;
60816;PMS5003;51921;51.518;-3.188;2023-03-11T09:28:55;19;18;
60816;PMS5003;51921;51.518;-3.188;2023-03-11T09:31:21;21;21;
60816;PMS5003;51921;51.518;-3.188;2023-03-11T09:33:49;22;20;
60816;PMS5003;51921;51.518;-3.188;2023-03-11T09:36:13;23;22;
60816;PMS5003;51921;51.518;-3.188;2023-03-11T09:38:38;23;22;
60816;PMS5003;51921;51.518;-3.188;2023-03-11T09:41:05;19;16;
60816;PMS5003;51921;51.518;-3.188;2023-03-11T09:43:35;18;17;
60816;PMS5003;51921;51.518;-3.188;2023-03-11T09:45:58;20;17;
60816;PMS5003;51921;51.518;-3.188;2023-03-11T09:48:21;18;18;
60816;PMS5003;51921;51.518;-3.188;2023-03-11T09:50:47;22;19;
60816;PMS5003;51921;51.518;-3.188;2023-03-11T09:53:16;16;14;
60816;PMS5003;51921;51.518;-3.188;2023-03-11T09:55:38;16;15;
60816;PMS5003;51921;51.518;-3.188;2023-03-11T09:58:04;20;19;
60816;PMS5003;51921;51.518;-3.188;2023-03-11T10:00:29;19;19;
60816;PMS5003;51921;51.518;-3.188;2023-03-11T10:02:54;19;17;
60816;PMS5003;51921;51.518;-3.188;2023-03-11T10:05:20;18;16;
60816;PMS5003;51921;51.518;-3.188;2023-03-11T10:07:46;14;14;
60816;PMS5003;51921;51.518;-3.188;2023-03-11T10:10:11;17;14;
60816;PMS5003;51921;51.518;-3.188;2023-03-11T10:12:40;18;17;
60816;PMS5003;51921;51.518;-3.188;2023-03-11T10:15:09;18;16;
60816;PMS5003;51921;51.518;-3.188;2023-03-11T10:19:54;19;19;
60816;PMS5003;51921;51.518;-3.188;2023-03-11T10:22:21;15;14;
60816;PMS5003;51921;51.518;-3.188;2023-03-11T10:24:49;20;18;
60816;PMS5003;51921;51.518;-3.188;2023-03-11T10:27:14;16;16;
60816;PMS5003;51921;51.518;-3.188;2023-03-11T10:29:39;18;16;
60816;PMS5003;51921;51.518;-3.188;2023-03-11T10:32:04;16;16;
60816;PMS5003;51921;51.518;-3.188;2023-03-11T10:34:29;21;20;
60816;PMS5003;51921;51.518;-3.188;2023-03-11T10:36:55;16;14;
60816;PMS5003;51921;51.518;-3.188;2023-03-11T10:39:18;14;14;
60816;PMS5003;51921;51.518;-3.188;2023-03-11T10:41:44;14;14;
60816;PMS5003;51921;51.518;-3.188;2023-03-11T10:44:10;17;17;
60816;PMS5003;51921;51.518;-3.188;2023-03-11T10:46:34;12;12;
60816;PMS5003;51921;51.518;-3.188;2023-03-11T10:49:00;15;15;
60816;PMS5003;51921;51.518;-3.188;2023-03-11T10:51:26;16;14;
60816;PMS5003;51921;51.518;-3.188;2023-03-11T10:53:52;12;11;
60816;PMS5003;51921;51.518;-3.188;2023-03-11T10:58:47;12;11;
60816;PMS5003;51921;51.518;-3.188;2023-03-11T11:01:13;13;13;
60816;PMS5003;51921;51.518;-3.188;2023-03-11T11:03:34;13;13;
60816;PMS5003;51921;51.518;-3.188;2023-03-11T11:06:00;12;12;
60816;PMS5003;51921;51.518;-3.188;2023-03-11T11:08:25;14;13;
60816;PMS5003;51921;51.518;-3.188;2023-03-11T11:10:51;10;10;
60816;PMS5003;51921;51.518;-3.188;2023-03-11T11:13:17;10;10;
60816;PMS5003;51921;51.518;-3.188;2023-03-11T11:15:42;15;13;
60816;PMS5003;51921;51.518;-3.188;2023-03-11T11:18:14;11;10;
60816;PMS5003;51921;51.518;-3.188;2023-03-11T11:20:52;16;16;
60816;PMS5003;51921;51.518;-3.188;2023-03-11T11:22:59;16;16;
60816;PMS5003;51921;51.518;-3.188;2023-03-11T11:25:24;17;15;
60816;PMS5003;51921;51.518;-3.188;2023-03-11T11:27:52;15;14;
60816;PMS5003;51921;51.518;-3.188;2023-03-11T11:30:15;15;14;
60816;PMS5003;51921;51.518;-3.188;2023-03-11T11:32:45;13;12;
60816;PMS5003;51921;51.518;-3.188;2023-03-11T11:35:07;17;15;
60816;PMS5003;51921;51.518;-3.188;2023-03-11T11:37:34;19;17;
60816;PMS5003;51921;51.518;-3.188;2023-03-11T11:39:58;14;14;
60816;PMS5003;51921;51.518;-3.188;2023-03-11T11:42:23;18;17;
60816;PMS5003;51921;51.518;-3.188;2023-03-11T11:44:48;16;16;
60816;PMS5003;51921;51.518;-3.188;2023-03-11T11:47:14;18;18;
60816;PMS5003;51921;51.518;-3.188;2023-03-11T11:49:41;16;16;
60816;PMS5003;51921;51.518;-3.188;2023-03-11T11:52:08;21;20;
60816;PMS5003;51921;51.518;-3.188;2023-03-11T11:54:32;19;18;
60816;PMS5003;51921;51.518;-3.188;2023-03-11T11:56:56;17;16;
60816;PMS5003;51921;51.518;-3.188;2023-03-11T11:59:24;21;21;
60816;PMS5003;51921;51.518;-3.188;2023-03-11T12:01:49;20;20;
60816;PMS5003;51921;51.518;-3.188;2023-03-11T12:04:24;19;18;
60816;PMS5003;51921;51.518;-3.188;2023-03-11T12:06:41;18;18;
60816;PMS5003;51921;51.518;-3.188;2023-03-11T12:09:08;18;18;
60816;PMS5003;51921;51.518;-3.188;2023-03-11T12:11:31;20;18;
60816;PMS5003;51921;51.518;-3.188;2023-03-11T12:13:57;17;17;
60816;PMS5003;51921;51.518;-3.188;2023-03-11T12:16:23;17;17;
60816;PMS5003;51921;51.518;-3.188;2023-03-11T12:18:48;19;16;
60816;PMS5003;51921;51.518;-3.188;2023-03-11T12:21:14;18;17;
60816;PMS5003;51921;51.518;-3.188;2023-03-11T12:23:40;22;19;
60816;PMS5003;51921;51.518;-3.188;2023-03-11T12:26:04;18;17;
60816;PMS5003;51921;51.518;-3.188;2023-03-11T12:28:31;17;16;
60816;PMS5003;51921;51.518;-3.188;2023-03-11T12:30:54;19;19;
60816;PMS5003;51921;51.518;-3.188;2023-03-11T12:33:22;17;15;
60816;PMS5003;51921;51.518;-3.188;2023-03-11T12:35:47;18;16;
60816;PMS5003;51921;51.518;-3.188;2023-03-11T12:38:14;14;14;
60816;PMS5003;51921;51.518;-3.188;2023-03-11T12:43:02;16;16;
60816;PMS5003;51921;51.518;-3.188;2023-03-11T12:52:50;19;19;
60816;PMS5003;51921;51.518;-3.188;2023-03-11T12:57:35;18;17;
60816;PMS5003;51921;51.518;-3.188;2023-03-11T13:00:02;20;18;
60816;PMS5003;51921;51.518;-3.188;2023-03-11T13:02:30;23;23;
60816;PMS5003;51921;51.518;-3.188;2023-03-11T13:04:54;19;19;
60816;PMS5003;51921;51.518;-3.188;2023-03-11T13:09:42;18;17;
60816;PMS5003;51921;51.518;-3.188;2023-03-11T13:14:33;17;17;
60816;PMS5003;51921;51.518;-3.188;2023-03-11T13:19:34;18;18;
60816;PMS5003;51921;51.518;-3.188;2023-03-11T13:21:50;14;14;
60816;PMS5003;51921;51.518;-3.188;2023-03-11T13:26:41;16;15;
60816;PMS5003;51921;51.518;-3.188;2023-03-11T13:29:12;17;16;
60816;PMS5003;51921;51.518;-3.188;2023-03-11T13:31:39;18;18;
60816;PMS5003;51921;51.518;-3.188;2023-03-11T13:33:58;17;15;
60816;PMS5003;51921;51.518;-3.188;2023-03-11T13:36:31;16;15;
60816;PMS5003;51921;51.518;-3.188;2023-03-11T13:38:56;18;17;
60816;PMS5003;51921;51.518;-3.188;2023-03-11T13:41:15;18;17;
60816;PMS5003;51921;51.518;-3.188;2023-03-11T13:43:42;20;19;
60816;PMS5003;51921;51.518;-3.188;2023-03-11T13:46:12;17;17;
60816;PMS5003;51921;51.518;-3.188;2023-03-11T13:48:31;17;16;
60816;PMS5003;51921;51.518;-3.188;2023-03-11T13:50:58;16;14;
60816;PMS5003;51921;51.518;-3.188;2023-03-11T13:53:23;12;12;
60816;PMS5003;51921;51.518;-3.188;2023-03-11T13:55:47;14;13;
60816;PMS5003;51921;51.518;-3.188;2023-03-11T13:58:14;12;12;
60816;PMS5003;51921;51.518;-3.188;2023-03-11T14:00:38;14;14;
60816;PMS5003;51921;51.518;-3.188;2023-03-11T14:03:08;14;13;
60816;PMS5003;51921;51.518;-3.188;2023-03-11T14:05:30;13;13;
60816;PMS5003;51921;51.518;-3.188;2023-03-11T14:10:23;14;13;
60816;PMS5003;51921;51.518;-3.188;2023-03-11T14:12:47;18;18;
60816;PMS5003;51921;51.518;-3.188;2023-03-11T14:15:13;21;20;
60816;PMS5003;51921;51.518;-3.188;2023-03-11T14:17:38;16;15;
60816;PMS5003;51921;51.518;-3.188;2023-03-11T14:20:04;17;16;
60816;PMS5003;51921;51.518;-3.188;2023-03-11T14:22:29;16;15;
60816;PMS5003;51921;51.518;-3.188;2023-03-11T14:24:56;16;16;
60816;PMS5003;51921;51.518;-3.188;2023-03-11T14:27:23;16;15;
60816;PMS5003;51921;51.518;-3.188;2023-03-11T14:29:46;14;13;
60816;PMS5003;51921;51.518;-3.188;2023-03-11T14:32:15;17;15;
60816;PMS5003;51921;51.518;-3.188;2023-03-11T14:34:39;20;18;
60816;PMS5003;51921;51.518;-3.188;2023-03-11T14:37:02;17;15;
60816;PMS5003;51921;51.518;-3.188;2023-03-11T14:39:29;18;17;
60816;PMS5003;51921;51.518;-3.188;2023-03-11T14:41:54;18;17;
60816;PMS5003;51921;51.518;-3.188;2023-03-11T14:44:19;16;16;
60816;PMS5003;51921;51.518;-3.188;2023-03-11T14:46:44;15;14;
60816;PMS5003;51921;51.518;-3.188;2023-03-11T14:49:11;13;12;
60816;PMS5003;51921;51.518;-3.188;2023-03-11T14:51:35;14;13;
60816;PMS5003;51921;51.518;-3.188;2023-03-11T14:54:03;17;17;
60816;PMS5003;51921;51.518;-3.188;2023-03-11T14:56:26;17;15;
60816;PMS5003;51921;51.518;-3.188;2023-03-11T14:58:53;13;13;
60816;PMS5003;51921;51.518;-3.188;2023-03-11T15:01:18;13;13;
60816;PMS5003;51921;51.518;-3.188;2023-03-11T15:03:44;17;16;
60816;PMS5003;51921;51.518;-3.188;2023-03-11T15:06:09;14;13;
60816;PMS5003;51921;51.518;-3.188;2023-03-11T15:08:35;14;14;
60816;PMS5003;51921;51.518;-3.188;2023-03-11T15:11:01;16;15;
60816;PMS5003;51921;51.518;-3.188;2023-03-11T15:13:25;14;13;
60816;PMS5003;51921;51.518;-3.188;2023-03-11T15:15:55;12;12;
60816;PMS5003;51921;51.518;-3.188;2023-03-11T15:18:20;14;13;
60816;PMS5003;51921;51.518;-3.188;2023-03-11T15:20:42;14;13;
60816;PMS5003;51921;51.518;-3.188;2023-03-11T15:25:34;16;15;
60816;PMS5003;51921;51.518;-3.188;2023-03-11T15:27:59;16;14;
60816;PMS5003;51921;51.518;-3.188;2023-03-11T15:30:25;17;17;
60816;PMS5003;51921;51.518;-3.188;2023-03-11T15:32:50;13;13;
60816;PMS5003;51921;51.518;-3.188;2023-03-11T15:35:16;15;15;
60816;PMS5003;51921;51.518;-3.188;2023-03-11T15:37:41;16;15;
60816;PMS5003;51921;51.518;-3.188;2023-03-11T15:40:10;13;13;
60816;PMS5003;51921;51.518;-3.188;2023-03-11T15:42:32;15;15;
60816;PMS5003;51921;51.518;-3.188;2023-03-11T15:45:02;16;15;
60816;PMS5003;51921;51.518;-3.188;2023-03-11T15:47:24;16;15;
60816;PMS5003;51921;51.518;-3.188;2023-03-11T15:49:49;14;14;
60816;PMS5003;51921;51.518;-3.188;2023-03-11T15:52:14;15;15;
60816;PMS5003;51921;51.518;-3.188;2023-03-11T15:54:40;17;16;
60816;PMS5003;51921;51.518;-3.188;2023-03-11T15:57:06;16;15;
60816;PMS5003;51921;51.518;-3.188;2023-03-11T15:59:33;17;16;
60816;PMS5003;51921;51.518;-3.188;2023-03-11T16:01:56;17;17;
60816;PMS5003;51921;51.518;-3.188;2023-03-11T16:04:21;20;19;
60816;PMS5003;51921;51.518;-3.188;2023-03-11T16:06:47;15;15;
60816;PMS5003;51921;51.518;-3.188;2023-03-11T16:09:13;20;19;
60816;PMS5003;51921;51.518;-3.188;2023-03-11T16:11:39;18;15;
60816;PMS5003;51921;51.518;-3.188;2023-03-11T16:14:04;16;16;
60816;PMS5003;51921;51.518;-3.188;2023-03-11T16:16:29;16;16;
60816;PMS5003;51921;51.518;-3.188;2023-03-11T16:18:54;16;15;
60816;PMS5003;51921;51.518;-3.188;2023-03-11T16:21:21;15;15;
60816;PMS5003;51921;51.518;-3.188;2023-03-11T16:23:46;12;12;